sensor_id;sensor_type;location;lat;lon;timestamp;P1;durP1;ratioP1;P2;durP2;ratioP2
70467;SDS011;57934;51.532;7.684;2023-07-16T00:00:33;5.25;;;1.63;;
70467;SDS011;57934;51.532;7.684;2023-07-16T00:02:59;2.55;;;1.80;;
70467;SDS011;57934;51.532;7.684;2023-07-16T00:05:25;2.33;;;1.70;;
70467;SDS011;57934;51.532;7.684;2023-07-16T00:07:51;2.90;;;1.67;;
70467;SDS011;57934;51.532;7.684;2023-07-16T00:10:18;3.15;;;1.67;;
70467;SDS011;57934;51.532;7.684;2023-07-16T00:12:44;3.10;;;2.00;;
70467;SDS011;57934;51.532;7.684;2023-07-16T00:15:10;2.70;;;1.70;;
70467;SDS011;57934;51.532;7.684;2023-07-16T00:17:36;3.00;;;1.92;;
70467;SDS011;57934;51.532;7.684;2023-07-16T00:20:02;3.45;;;2.05;;
70467;SDS011;57934;51.532;7.684;2023-07-16T00:22:30;2.33;;;1.77;;
70467;SDS011;57934;51.532;7.684;2023-07-16T00:24:56;3.47;;;2.10;;
70467;SDS011;57934;51.532;7.684;2023-07-16T00:27:22;5.28;;;1.80;;
70467;SDS011;57934;51.532;7.684;2023-07-16T00:29:48;3.70;;;2.00;;
70467;SDS011;57934;51.532;7.684;2023-07-16T00:32:14;3.58;;;1.80;;
70467;SDS011;57934;51.532;7.684;2023-07-16T00:34:40;3.15;;;1.65;;
70467;SDS011;57934;51.532;7.684;2023-07-16T00:37:08;2.95;;;1.58;;
70467;SDS011;57934;51.532;7.684;2023-07-16T00:39:34;2.65;;;1.75;;
70467;SDS011;57934;51.532;7.684;2023-07-16T00:42:00;3.53;;;1.95;;
70467;SDS011;57934;51.532;7.684;2023-07-16T00:44:26;2.20;;;1.70;;
70467;SDS011;57934;51.532;7.684;2023-07-16T00:46:52;3.95;;;1.80;;
70467;SDS011;57934;51.532;7.684;2023-07-16T00:49:18;5.78;;;1.73;;
70467;SDS011;57934;51.532;7.684;2023-07-16T00:51:44;4.65;;;1.60;;
70467;SDS011;57934;51.532;7.684;2023-07-16T00:54:11;6.18;;;1.90;;
70467;SDS011;57934;51.532;7.684;2023-07-16T00:56:37;3.78;;;1.90;;
70467;SDS011;57934;51.532;7.684;2023-07-16T00:59:04;2.35;;;1.48;;
70467;SDS011;57934;51.532;7.684;2023-07-16T01:01:30;3.10;;;1.73;;
70467;SDS011;57934;51.532;7.684;2023-07-16T01:03:56;3.47;;;1.70;;
70467;SDS011;57934;51.532;7.684;2023-07-16T01:06:25;4.57;;;1.95;;
70467;SDS011;57934;51.532;7.684;2023-07-16T01:09:08;2.63;;;1.60;;
70467;SDS011;57934;51.532;7.684;2023-07-16T01:11:40;5.60;;;1.55;;
70467;SDS011;57934;51.532;7.684;2023-07-16T01:14:08;3.33;;;1.50;;
70467;SDS011;57934;51.532;7.684;2023-07-16T01:16:36;5.25;;;2.05;;
70467;SDS011;57934;51.532;7.684;2023-07-16T01:19:02;5.55;;;1.77;;
70467;SDS011;57934;51.532;7.684;2023-07-16T01:21:34;2.55;;;1.52;;
70467;SDS011;57934;51.532;7.684;2023-07-16T01:27:04;5.75;;;1.77;;
70467;SDS011;57934;51.532;7.684;2023-07-16T01:32:24;3.90;;;1.70;;
70467;SDS011;57934;51.532;7.684;2023-07-16T01:34:51;4.70;;;1.70;;
70467;SDS011;57934;51.532;7.684;2023-07-16T01:37:18;3.00;;;1.58;;
70467;SDS011;57934;51.532;7.684;2023-07-16T01:39:45;4.32;;;1.67;;
70467;SDS011;57934;51.532;7.684;2023-07-16T01:42:11;5.78;;;1.67;;
70467;SDS011;57934;51.532;7.684;2023-07-16T01:44:38;3.83;;;1.90;;
70467;SDS011;57934;51.532;7.684;2023-07-16T01:47:05;4.97;;;1.65;;
70467;SDS011;57934;51.532;7.684;2023-07-16T01:49:38;4.03;;;1.80;;
70467;SDS011;57934;51.532;7.684;2023-07-16T01:52:05;3.65;;;1.50;;
70467;SDS011;57934;51.532;7.684;2023-07-16T01:54:33;6.22;;;1.70;;
70467;SDS011;57934;51.532;7.684;2023-07-16T01:57:00;4.07;;;1.80;;
70467;SDS011;57934;51.532;7.684;2023-07-16T01:59:26;4.35;;;1.60;;
70467;SDS011;57934;51.532;7.684;2023-07-16T02:01:55;2.72;;;1.70;;
70467;SDS011;57934;51.532;7.684;2023-07-16T02:04:22;6.80;;;1.65;;
70467;SDS011;57934;51.532;7.684;2023-07-16T02:06:48;3.97;;;1.65;;
70467;SDS011;57934;51.532;7.684;2023-07-16T02:09:19;4.68;;;1.77;;
70467;SDS011;57934;51.532;7.684;2023-07-16T02:11:46;4.18;;;1.50;;
70467;SDS011;57934;51.532;7.684;2023-07-16T02:14:13;2.83;;;1.35;;
70467;SDS011;57934;51.532;7.684;2023-07-16T02:16:39;4.65;;;1.70;;
70467;SDS011;57934;51.532;7.684;2023-07-16T02:19:05;3.97;;;1.38;;
70467;SDS011;57934;51.532;7.684;2023-07-16T02:21:31;4.50;;;1.85;;
70467;SDS011;57934;51.532;7.684;2023-07-16T02:23:58;4.05;;;1.50;;
70467;SDS011;57934;51.532;7.684;2023-07-16T02:26:25;7.65;;;1.80;;
70467;SDS011;57934;51.532;7.684;2023-07-16T02:28:51;4.22;;;1.88;;
70467;SDS011;57934;51.532;7.684;2023-07-16T02:31:17;8.18;;;1.85;;
70467;SDS011;57934;51.532;7.684;2023-07-16T02:33:43;4.93;;;2.00;;
70467;SDS011;57934;51.532;7.684;2023-07-16T02:36:09;5.30;;;2.25;;
70467;SDS011;57934;51.532;7.684;2023-07-16T02:38:35;4.57;;;2.00;;
70467;SDS011;57934;51.532;7.684;2023-07-16T02:41:01;5.93;;;1.88;;
70467;SDS011;57934;51.532;7.684;2023-07-16T02:43:27;5.03;;;1.80;;
70467;SDS011;57934;51.532;7.684;2023-07-16T02:45:53;4.05;;;1.83;;
70467;SDS011;57934;51.532;7.684;2023-07-16T02:48:19;3.40;;;2.28;;
70467;SDS011;57934;51.532;7.684;2023-07-16T02:50:45;5.95;;;2.05;;
70467;SDS011;57934;51.532;7.684;2023-07-16T02:53:11;3.50;;;1.60;;
70467;SDS011;57934;51.532;7.684;2023-07-16T02:55:37;3.25;;;2.65;;
70467;SDS011;57934;51.532;7.684;2023-07-16T02:58:03;3.08;;;1.90;;
70467;SDS011;57934;51.532;7.684;2023-07-16T03:00:30;7.38;;;2.25;;
70467;SDS011;57934;51.532;7.684;2023-07-16T03:02:58;5.35;;;2.65;;
70467;SDS011;57934;51.532;7.684;2023-07-16T03:05:24;3.33;;;1.92;;
70467;SDS011;57934;51.532;7.684;2023-07-16T03:07:51;5.22;;;2.25;;
70467;SDS011;57934;51.532;7.684;2023-07-16T03:10:17;3.70;;;2.38;;
70467;SDS011;57934;51.532;7.684;2023-07-16T03:12:44;5.82;;;2.30;;
70467;SDS011;57934;51.532;7.684;2023-07-16T03:15:16;3.22;;;1.88;;
70467;SDS011;57934;51.532;7.684;2023-07-16T03:17:42;3.95;;;1.80;;
70467;SDS011;57934;51.532;7.684;2023-07-16T03:20:08;7.30;;;1.98;;
70467;SDS011;57934;51.532;7.684;2023-07-16T03:22:35;4.28;;;2.10;;
70467;SDS011;57934;51.532;7.684;2023-07-16T03:25:03;4.55;;;2.40;;
70467;SDS011;57934;51.532;7.684;2023-07-16T03:27:30;4.30;;;1.95;;
70467;SDS011;57934;51.532;7.684;2023-07-16T03:29:59;4.38;;;2.17;;
70467;SDS011;57934;51.532;7.684;2023-07-16T03:32:25;2.53;;;1.98;;
70467;SDS011;57934;51.532;7.684;2023-07-16T03:34:51;5.93;;;2.00;;
70467;SDS011;57934;51.532;7.684;2023-07-16T03:37:17;5.45;;;2.38;;
70467;SDS011;57934;51.532;7.684;2023-07-16T03:39:43;7.72;;;2.08;;
70467;SDS011;57934;51.532;7.684;2023-07-16T03:42:09;5.85;;;1.77;;
70467;SDS011;57934;51.532;7.684;2023-07-16T03:44:35;3.53;;;1.75;;
70467;SDS011;57934;51.532;7.684;2023-07-16T03:47:03;3.55;;;2.10;;
70467;SDS011;57934;51.532;7.684;2023-07-16T03:49:29;4.32;;;1.63;;
70467;SDS011;57934;51.532;7.684;2023-07-16T03:51:55;9.23;;;1.83;;
70467;SDS011;57934;51.532;7.684;2023-07-16T03:54:21;9.52;;;2.25;;
70467;SDS011;57934;51.532;7.684;2023-07-16T03:56:47;2.97;;;1.60;;
70467;SDS011;57934;51.532;7.684;2023-07-16T03:59:13;7.72;;;2.03;;
70467;SDS011;57934;51.532;7.684;2023-07-16T04:01:39;6.50;;;1.77;;
70467;SDS011;57934;51.532;7.684;2023-07-16T04:04:05;7.72;;;2.50;;
70467;SDS011;57934;51.532;7.684;2023-07-16T04:06:32;5.18;;;1.50;;
70467;SDS011;57934;51.532;7.684;2023-07-16T04:08:59;6.38;;;1.98;;
70467;SDS011;57934;51.532;7.684;2023-07-16T04:11:25;3.13;;;1.88;;
70467;SDS011;57934;51.532;7.684;2023-07-16T04:13:51;6.95;;;2.15;;
70467;SDS011;57934;51.532;7.684;2023-07-16T04:16:17;4.13;;;1.60;;
70467;SDS011;57934;51.532;7.684;2023-07-16T04:18:44;8.00;;;2.10;;
70467;SDS011;57934;51.532;7.684;2023-07-16T04:21:10;6.97;;;2.10;;
70467;SDS011;57934;51.532;7.684;2023-07-16T04:23:36;8.02;;;2.17;;
70467;SDS011;57934;51.532;7.684;2023-07-16T04:26:02;5.60;;;2.42;;
70467;SDS011;57934;51.532;7.684;2023-07-16T04:28:28;6.82;;;2.20;;
70467;SDS011;57934;51.532;7.684;2023-07-16T04:30:54;6.75;;;2.30;;
70467;SDS011;57934;51.532;7.684;2023-07-16T04:33:20;4.72;;;2.25;;
70467;SDS011;57934;51.532;7.684;2023-07-16T04:35:47;7.15;;;2.20;;
70467;SDS011;57934;51.532;7.684;2023-07-16T04:38:13;6.55;;;2.35;;
70467;SDS011;57934;51.532;7.684;2023-07-16T04:40:39;5.85;;;1.98;;
70467;SDS011;57934;51.532;7.684;2023-07-16T04:43:06;4.13;;;2.20;;
70467;SDS011;57934;51.532;7.684;2023-07-16T04:45:32;5.95;;;2.20;;
70467;SDS011;57934;51.532;7.684;2023-07-16T04:47:59;8.32;;;2.28;;
70467;SDS011;57934;51.532;7.684;2023-07-16T04:50:25;14.02;;;2.63;;
70467;SDS011;57934;51.532;7.684;2023-07-16T04:52:51;5.47;;;2.30;;
70467;SDS011;57934;51.532;7.684;2023-07-16T04:55:17;5.20;;;2.08;;
70467;SDS011;57934;51.532;7.684;2023-07-16T04:57:43;10.18;;;2.30;;
70467;SDS011;57934;51.532;7.684;2023-07-16T05:00:09;6.07;;;2.38;;
70467;SDS011;57934;51.532;7.684;2023-07-16T05:02:35;6.15;;;2.38;;
70467;SDS011;57934;51.532;7.684;2023-07-16T05:05:01;8.23;;;2.53;;
70467;SDS011;57934;51.532;7.684;2023-07-16T05:07:27;6.57;;;2.20;;
70467;SDS011;57934;51.532;7.684;2023-07-16T05:09:53;6.15;;;2.38;;
70467;SDS011;57934;51.532;7.684;2023-07-16T05:12:19;6.65;;;2.40;;
70467;SDS011;57934;51.532;7.684;2023-07-16T05:14:47;6.30;;;2.40;;
70467;SDS011;57934;51.532;7.684;2023-07-16T05:17:14;7.55;;;2.20;;
70467;SDS011;57934;51.532;7.684;2023-07-16T05:19:40;9.18;;;2.95;;
70467;SDS011;57934;51.532;7.684;2023-07-16T05:22:06;13.18;;;2.88;;
70467;SDS011;57934;51.532;7.684;2023-07-16T05:24:32;7.75;;;2.30;;
70467;SDS011;57934;51.532;7.684;2023-07-16T05:26:59;7.78;;;2.92;;
70467;SDS011;57934;51.532;7.684;2023-07-16T05:29:25;6.15;;;2.15;;
70467;SDS011;57934;51.532;7.684;2023-07-16T05:35:39;9.32;;;2.67;;
70467;SDS011;57934;51.532;7.684;2023-07-16T05:38:06;7.95;;;2.88;;
70467;SDS011;57934;51.532;7.684;2023-07-16T05:40:32;10.25;;;3.00;;
70467;SDS011;57934;51.532;7.684;2023-07-16T05:42:58;10.88;;;2.85;;
70467;SDS011;57934;51.532;7.684;2023-07-16T05:45:24;9.73;;;3.00;;
70467;SDS011;57934;51.532;7.684;2023-07-16T05:47:50;6.57;;;2.83;;
70467;SDS011;57934;51.532;7.684;2023-07-16T05:50:17;9.25;;;3.03;;
70467;SDS011;57934;51.532;7.684;2023-07-16T05:52:43;9.20;;;2.72;;
70467;SDS011;57934;51.532;7.684;2023-07-16T05:55:09;5.50;;;2.55;;
70467;SDS011;57934;51.532;7.684;2023-07-16T05:57:35;7.80;;;3.35;;
70467;SDS011;57934;51.532;7.684;2023-07-16T06:00:01;7.70;;;2.95;;
70467;SDS011;57934;51.532;7.684;2023-07-16T06:02:37;10.35;;;2.65;;
70467;SDS011;57934;51.532;7.684;2023-07-16T06:05:03;11.63;;;3.47;;
70467;SDS011;57934;51.532;7.684;2023-07-16T06:07:30;8.75;;;3.30;;
70467;SDS011;57934;51.532;7.684;2023-07-16T06:09:59;7.55;;;2.95;;
70467;SDS011;57934;51.532;7.684;2023-07-16T06:12:26;7.90;;;3.03;;
70467;SDS011;57934;51.532;7.684;2023-07-16T06:14:52;8.32;;;3.25;;
70467;SDS011;57934;51.532;7.684;2023-07-16T06:17:18;6.65;;;2.90;;
70467;SDS011;57934;51.532;7.684;2023-07-16T06:19:45;5.50;;;3.17;;
70467;SDS011;57934;51.532;7.684;2023-07-16T06:22:14;6.35;;;2.90;;
70467;SDS011;57934;51.532;7.684;2023-07-16T06:24:40;8.82;;;3.45;;
70467;SDS011;57934;51.532;7.684;2023-07-16T06:27:06;5.97;;;2.90;;
70467;SDS011;57934;51.532;7.684;2023-07-16T06:29:32;8.10;;;3.53;;
70467;SDS011;57934;51.532;7.684;2023-07-16T06:31:58;9.00;;;3.00;;
70467;SDS011;57934;51.532;7.684;2023-07-16T06:34:25;8.07;;;3.33;;
70467;SDS011;57934;51.532;7.684;2023-07-16T06:36:51;10.18;;;3.58;;
70467;SDS011;57934;51.532;7.684;2023-07-16T06:39:17;10.00;;;3.95;;
70467;SDS011;57934;51.532;7.684;2023-07-16T06:41:43;8.38;;;4.07;;
70467;SDS011;57934;51.532;7.684;2023-07-16T06:44:10;12.57;;;3.83;;
70467;SDS011;57934;51.532;7.684;2023-07-16T06:46:36;7.95;;;3.85;;
70467;SDS011;57934;51.532;7.684;2023-07-16T06:49:02;8.65;;;3.60;;
70467;SDS011;57934;51.532;7.684;2023-07-16T06:51:28;9.15;;;3.95;;
70467;SDS011;57934;51.532;7.684;2023-07-16T06:53:55;8.90;;;3.42;;
70467;SDS011;57934;51.532;7.684;2023-07-16T06:56:22;11.13;;;3.92;;
70467;SDS011;57934;51.532;7.684;2023-07-16T06:58:48;7.97;;;4.05;;
70467;SDS011;57934;51.532;7.684;2023-07-16T07:04:06;13.27;;;3.88;;
70467;SDS011;57934;51.532;7.684;2023-07-16T07:06:32;9.45;;;4.05;;
70467;SDS011;57934;51.532;7.684;2023-07-16T07:08:58;6.07;;;3.38;;
70467;SDS011;57934;51.532;7.684;2023-07-16T07:11:24;12.27;;;4.18;;
70467;SDS011;57934;51.532;7.684;2023-07-16T07:13:51;6.18;;;3.88;;
70467;SDS011;57934;51.532;7.684;2023-07-16T07:16:17;9.90;;;5.00;;
70467;SDS011;57934;51.532;7.684;2023-07-16T07:18:44;11.48;;;4.28;;
70467;SDS011;57934;51.532;7.684;2023-07-16T07:21:10;7.82;;;4.20;;
70467;SDS011;57934;51.532;7.684;2023-07-16T07:23:36;11.70;;;4.78;;
70467;SDS011;57934;51.532;7.684;2023-07-16T07:26:02;7.53;;;4.07;;
70467;SDS011;57934;51.532;7.684;2023-07-16T07:28:28;13.90;;;4.25;;
70467;SDS011;57934;51.532;7.684;2023-07-16T07:30:54;11.93;;;4.18;;
70467;SDS011;57934;51.532;7.684;2023-07-16T07:33:20;7.03;;;3.90;;
70467;SDS011;57934;51.532;7.684;2023-07-16T07:35:46;10.52;;;4.75;;
70467;SDS011;57934;51.532;7.684;2023-07-16T07:38:13;5.63;;;4.03;;
70467;SDS011;57934;51.532;7.684;2023-07-16T07:40:39;9.18;;;4.07;;
70467;SDS011;57934;51.532;7.684;2023-07-16T07:43:08;6.63;;;4.03;;
70467;SDS011;57934;51.532;7.684;2023-07-16T07:45:34;6.43;;;3.80;;
70467;SDS011;57934;51.532;7.684;2023-07-16T07:48:00;8.25;;;4.18;;
70467;SDS011;57934;51.532;7.684;2023-07-16T07:50:26;9.55;;;4.70;;
70467;SDS011;57934;51.532;7.684;2023-07-16T07:52:54;7.07;;;4.00;;
70467;SDS011;57934;51.532;7.684;2023-07-16T07:55:20;8.90;;;4.05;;
70467;SDS011;57934;51.532;7.684;2023-07-16T07:57:47;9.25;;;4.22;;
70467;SDS011;57934;51.532;7.684;2023-07-16T08:00:13;10.77;;;4.70;;
70467;SDS011;57934;51.532;7.684;2023-07-16T08:02:41;5.60;;;3.35;;
70467;SDS011;57934;51.532;7.684;2023-07-16T08:05:07;8.18;;;3.70;;
70467;SDS011;57934;51.532;7.684;2023-07-16T08:07:34;7.97;;;4.25;;
70467;SDS011;57934;51.532;7.684;2023-07-16T08:10:00;10.95;;;3.90;;
70467;SDS011;57934;51.532;7.684;2023-07-16T08:12:26;4.32;;;3.60;;
70467;SDS011;57934;51.532;7.684;2023-07-16T08:14:52;6.03;;;3.60;;
70467;SDS011;57934;51.532;7.684;2023-07-16T08:17:18;7.03;;;3.50;;
70467;SDS011;57934;51.532;7.684;2023-07-16T08:19:44;9.13;;;3.70;;
70467;SDS011;57934;51.532;7.684;2023-07-16T08:22:10;5.60;;;3.75;;
70467;SDS011;57934;51.532;7.684;2023-07-16T08:24:38;8.23;;;4.20;;
70467;SDS011;57934;51.532;7.684;2023-07-16T08:27:04;8.70;;;3.75;;
70467;SDS011;57934;51.532;7.684;2023-07-16T08:29:30;5.55;;;4.05;;
70467;SDS011;57934;51.532;7.684;2023-07-16T08:31:56;6.95;;;3.40;;
70467;SDS011;57934;51.532;7.684;2023-07-16T08:34:22;9.05;;;3.70;;
70467;SDS011;57934;51.532;7.684;2023-07-16T08:36:49;8.30;;;3.53;;
70467;SDS011;57934;51.532;7.684;2023-07-16T08:39:15;5.70;;;3.20;;
70467;SDS011;57934;51.532;7.684;2023-07-16T08:41:46;8.50;;;3.72;;
70467;SDS011;57934;51.532;7.684;2023-07-16T08:44:12;5.47;;;3.60;;
70467;SDS011;57934;51.532;7.684;2023-07-16T08:46:39;5.40;;;3.00;;
70467;SDS011;57934;51.532;7.684;2023-07-16T08:49:07;8.30;;;4.30;;
70467;SDS011;57934;51.532;7.684;2023-07-16T08:51:34;6.68;;;3.72;;
70467;SDS011;57934;51.532;7.684;2023-07-16T08:54:01;6.72;;;4.05;;
70467;SDS011;57934;51.532;7.684;2023-07-16T08:56:28;5.57;;;3.40;;
70467;SDS011;57934;51.532;7.684;2023-07-16T08:58:54;5.80;;;3.38;;
70467;SDS011;57934;51.532;7.684;2023-07-16T09:01:24;7.50;;;3.47;;
70467;SDS011;57934;51.532;7.684;2023-07-16T09:03:51;6.97;;;3.38;;
70467;SDS011;57934;51.532;7.684;2023-07-16T09:06:17;6.78;;;3.58;;
70467;SDS011;57934;51.532;7.684;2023-07-16T09:08:43;9.55;;;3.80;;
70467;SDS011;57934;51.532;7.684;2023-07-16T09:11:12;5.90;;;3.20;;
70467;SDS011;57934;51.532;7.684;2023-07-16T09:13:48;3.95;;;3.55;;
70467;SDS011;57934;51.532;7.684;2023-07-16T09:16:20;13.10;;;3.83;;
70467;SDS011;57934;51.532;7.684;2023-07-16T09:18:54;4.47;;;3.80;;
70467;SDS011;57934;51.532;7.684;2023-07-16T09:21:36;5.72;;;3.65;;
70467;SDS011;57934;51.532;7.684;2023-07-16T09:24:08;9.73;;;3.42;;
70467;SDS011;57934;51.532;7.684;2023-07-16T09:26:38;5.30;;;3.65;;
70467;SDS011;57934;51.532;7.684;2023-07-16T09:29:05;6.85;;;3.22;;
70467;SDS011;57934;51.532;7.684;2023-07-16T09:31:32;5.10;;;3.40;;
70467;SDS011;57934;51.532;7.684;2023-07-16T09:33:59;6.40;;;3.28;;
70467;SDS011;57934;51.532;7.684;2023-07-16T09:36:26;4.88;;;3.10;;
70467;SDS011;57934;51.532;7.684;2023-07-16T09:38:53;6.15;;;3.28;;
70467;SDS011;57934;51.532;7.684;2023-07-16T09:41:20;6.28;;;3.50;;
70467;SDS011;57934;51.532;7.684;2023-07-16T09:43:47;6.75;;;3.50;;
70467;SDS011;57934;51.532;7.684;2023-07-16T09:46:13;6.57;;;3.45;;
70467;SDS011;57934;51.532;7.684;2023-07-16T09:48:39;4.32;;;3.28;;
70467;SDS011;57934;51.532;7.684;2023-07-16T09:51:06;4.93;;;3.80;;
70467;SDS011;57934;51.532;7.684;2023-07-16T09:53:35;4.93;;;3.35;;
70467;SDS011;57934;51.532;7.684;2023-07-16T09:56:02;10.95;;;3.45;;
70467;SDS011;57934;51.532;7.684;2023-07-16T09:58:31;5.32;;;3.58;;
70467;SDS011;57934;51.532;7.684;2023-07-16T10:00:57;4.30;;;3.25;;
70467;SDS011;57934;51.532;7.684;2023-07-16T10:03:25;8.70;;;3.10;;
70467;SDS011;57934;51.532;7.684;2023-07-16T10:05:51;7.43;;;3.30;;
70467;SDS011;57934;51.532;7.684;2023-07-16T10:08:18;6.35;;;3.33;;
70467;SDS011;57934;51.532;7.684;2023-07-16T10:10:49;5.20;;;2.97;;
70467;SDS011;57934;51.532;7.684;2023-07-16T10:15:53;6.63;;;3.00;;
70467;SDS011;57934;51.532;7.684;2023-07-16T10:18:30;5.55;;;3.00;;
70467;SDS011;57934;51.532;7.684;2023-07-16T10:21:00;4.60;;;3.20;;
70467;SDS011;57934;51.532;7.684;2023-07-16T10:23:36;7.88;;;3.72;;
70467;SDS011;57934;51.532;7.684;2023-07-16T10:26:04;6.18;;;4.00;;
70467;SDS011;57934;51.532;7.684;2023-07-16T10:28:33;5.78;;;3.45;;
70467;SDS011;57934;51.532;7.684;2023-07-16T10:31:00;6.13;;;3.53;;
70467;SDS011;57934;51.532;7.684;2023-07-16T10:33:26;6.82;;;3.90;;
70467;SDS011;57934;51.532;7.684;2023-07-16T10:35:52;6.28;;;3.45;;
70467;SDS011;57934;51.532;7.684;2023-07-16T10:38:19;5.53;;;3.55;;
70467;SDS011;57934;51.532;7.684;2023-07-16T10:40:45;4.40;;;3.20;;
70467;SDS011;57934;51.532;7.684;2023-07-16T10:43:14;6.88;;;4.00;;
70467;SDS011;57934;51.532;7.684;2023-07-16T10:45:41;5.35;;;3.25;;
70467;SDS011;57934;51.532;7.684;2023-07-16T10:48:07;7.15;;;3.47;;
70467;SDS011;57934;51.532;7.684;2023-07-16T10:50:33;4.93;;;3.30;;
70467;SDS011;57934;51.532;7.684;2023-07-16T10:53:00;6.43;;;3.53;;
70467;SDS011;57934;51.532;7.684;2023-07-16T10:55:28;5.10;;;3.72;;
70467;SDS011;57934;51.532;7.684;2023-07-16T10:57:55;6.32;;;3.53;;
70467;SDS011;57934;51.532;7.684;2023-07-16T11:00:22;5.18;;;3.15;;
70467;SDS011;57934;51.532;7.684;2023-07-16T11:02:51;7.05;;;3.55;;
70467;SDS011;57934;51.532;7.684;2023-07-16T11:05:18;5.38;;;3.00;;
70467;SDS011;57934;51.532;7.684;2023-07-16T11:07:48;4.38;;;3.50;;
70467;SDS011;57934;51.532;7.684;2023-07-16T11:10:15;6.55;;;3.30;;
70467;SDS011;57934;51.532;7.684;2023-07-16T11:12:42;4.40;;;3.05;;
70467;SDS011;57934;51.532;7.684;2023-07-16T11:15:08;5.43;;;3.05;;
70467;SDS011;57934;51.532;7.684;2023-07-16T11:17:37;4.65;;;3.17;;
70467;SDS011;57934;51.532;7.684;2023-07-16T11:20:04;4.85;;;2.58;;
70467;SDS011;57934;51.532;7.684;2023-07-16T11:22:36;4.68;;;3.40;;
70467;SDS011;57934;51.532;7.684;2023-07-16T11:25:04;6.60;;;3.45;;
70467;SDS011;57934;51.532;7.684;2023-07-16T11:27:36;4.28;;;3.03;;
70467;SDS011;57934;51.532;7.684;2023-07-16T11:30:02;7.82;;;3.72;;
70467;SDS011;57934;51.532;7.684;2023-07-16T11:32:41;4.97;;;3.35;;
70467;SDS011;57934;51.532;7.684;2023-07-16T11:35:11;7.47;;;3.20;;
70467;SDS011;57934;51.532;7.684;2023-07-16T11:37:42;4.43;;;2.97;;
70467;SDS011;57934;51.532;7.684;2023-07-16T11:40:08;3.53;;;2.95;;
70467;SDS011;57934;51.532;7.684;2023-07-16T11:45:03;3.40;;;3.10;;
70467;SDS011;57934;51.532;7.684;2023-07-16T11:47:30;4.95;;;2.70;;
70467;SDS011;57934;51.532;7.684;2023-07-16T11:49:57;5.22;;;2.70;;
70467;SDS011;57934;51.532;7.684;2023-07-16T11:52:27;3.80;;;2.33;;
70467;SDS011;57934;51.532;7.684;2023-07-16T11:54:56;3.72;;;2.60;;
70467;SDS011;57934;51.532;7.684;2023-07-16T11:57:25;4.32;;;2.30;;
70467;SDS011;57934;51.532;7.684;2023-07-16T11:59:51;3.08;;;2.65;;
70467;SDS011;57934;51.532;7.684;2023-07-16T12:02:17;5.78;;;2.80;;
70467;SDS011;57934;51.532;7.684;2023-07-16T12:04:43;4.63;;;2.60;;
70467;SDS011;57934;51.532;7.684;2023-07-16T12:07:09;3.55;;;2.28;;
70467;SDS011;57934;51.532;7.684;2023-07-16T12:09:36;4.95;;;2.65;;
70467;SDS011;57934;51.532;7.684;2023-07-16T12:12:02;5.60;;;2.65;;
70467;SDS011;57934;51.532;7.684;2023-07-16T12:14:28;4.70;;;2.40;;
70467;SDS011;57934;51.532;7.684;2023-07-16T12:16:54;4.20;;;2.17;;
70467;SDS011;57934;51.532;7.684;2023-07-16T12:19:22;2.78;;;2.22;;
70467;SDS011;57934;51.532;7.684;2023-07-16T12:21:48;6.60;;;2.53;;
70467;SDS011;57934;51.532;7.684;2023-07-16T12:24:14;5.05;;;2.60;;
70467;SDS011;57934;51.532;7.684;2023-07-16T12:26:40;3.75;;;2.72;;
70467;SDS011;57934;51.532;7.684;2023-07-16T12:29:06;4.38;;;2.65;;
70467;SDS011;57934;51.532;7.684;2023-07-16T12:31:32;3.90;;;3.03;;
70467;SDS011;57934;51.532;7.684;2023-07-16T12:33:59;2.53;;;2.30;;
70467;SDS011;57934;51.532;7.684;2023-07-16T12:36:27;2.88;;;2.35;;
70467;SDS011;57934;51.532;7.684;2023-07-16T12:38:53;4.75;;;2.70;;
70467;SDS011;57934;51.532;7.684;2023-07-16T12:41:20;5.10;;;3.33;;
70467;SDS011;57934;51.532;7.684;2023-07-16T12:43:46;6.03;;;3.08;;
70467;SDS011;57934;51.532;7.684;2023-07-16T12:46:13;3.78;;;2.53;;
70467;SDS011;57934;51.532;7.684;2023-07-16T12:48:39;4.18;;;2.70;;
70467;SDS011;57934;51.532;7.684;2023-07-16T12:51:05;5.97;;;2.90;;
70467;SDS011;57934;51.532;7.684;2023-07-16T12:53:32;3.40;;;2.30;;
70467;SDS011;57934;51.532;7.684;2023-07-16T12:55:59;7.78;;;2.67;;
70467;SDS011;57934;51.532;7.684;2023-07-16T12:58:25;3.42;;;2.95;;
70467;SDS011;57934;51.532;7.684;2023-07-16T13:00:51;5.72;;;2.75;;
70467;SDS011;57934;51.532;7.684;2023-07-16T13:03:18;5.57;;;2.90;;
70467;SDS011;57934;51.532;7.684;2023-07-16T13:05:46;7.25;;;2.58;;
70467;SDS011;57934;51.532;7.684;2023-07-16T13:08:13;5.47;;;3.00;;
70467;SDS011;57934;51.532;7.684;2023-07-16T13:10:39;6.10;;;3.20;;
70467;SDS011;57934;51.532;7.684;2023-07-16T13:13:06;6.32;;;3.10;;
70467;SDS011;57934;51.532;7.684;2023-07-16T13:15:33;5.22;;;3.10;;
70467;SDS011;57934;51.532;7.684;2023-07-16T13:17:59;4.38;;;3.28;;
70467;SDS011;57934;51.532;7.684;2023-07-16T13:20:25;4.57;;;3.10;;
70467;SDS011;57934;51.532;7.684;2023-07-16T13:22:52;4.53;;;3.05;;
70467;SDS011;57934;51.532;7.684;2023-07-16T13:25:18;4.82;;;2.88;;
70467;SDS011;57934;51.532;7.684;2023-07-16T13:27:44;5.03;;;3.30;;
70467;SDS011;57934;51.532;7.684;2023-07-16T13:30:10;3.78;;;3.00;;
70467;SDS011;57934;51.532;7.684;2023-07-16T13:32:36;4.70;;;3.22;;
70467;SDS011;57934;51.532;7.684;2023-07-16T13:35:02;5.70;;;3.00;;
70467;SDS011;57934;51.532;7.684;2023-07-16T13:37:29;6.28;;;3.08;;
70467;SDS011;57934;51.532;7.684;2023-07-16T13:39:55;5.80;;;2.90;;
70467;SDS011;57934;51.532;7.684;2023-07-16T13:42:21;6.40;;;3.30;;
70467;SDS011;57934;51.532;7.684;2023-07-16T13:44:47;4.35;;;3.22;;
70467;SDS011;57934;51.532;7.684;2023-07-16T13:47:13;6.20;;;3.28;;
70467;SDS011;57934;51.532;7.684;2023-07-16T13:49:40;3.35;;;2.80;;
70467;SDS011;57934;51.532;7.684;2023-07-16T13:52:06;6.38;;;2.60;;
70467;SDS011;57934;51.532;7.684;2023-07-16T13:54:32;6.75;;;3.47;;
70467;SDS011;57934;51.532;7.684;2023-07-16T13:56:58;5.38;;;3.22;;
70467;SDS011;57934;51.532;7.684;2023-07-16T13:59:24;7.40;;;3.00;;
70467;SDS011;57934;51.532;7.684;2023-07-16T14:01:58;5.05;;;3.05;;
70467;SDS011;57934;51.532;7.684;2023-07-16T14:04:25;6.25;;;2.97;;
70467;SDS011;57934;51.532;7.684;2023-07-16T14:06:51;5.43;;;3.20;;
70467;SDS011;57934;51.532;7.684;2023-07-16T14:09:19;4.80;;;3.17;;
70467;SDS011;57934;51.532;7.684;2023-07-16T14:11:45;5.13;;;3.50;;
70467;SDS011;57934;51.532;7.684;2023-07-16T14:14:13;3.70;;;2.75;;
70467;SDS011;57934;51.532;7.684;2023-07-16T14:16:40;7.15;;;3.00;;
70467;SDS011;57934;51.532;7.684;2023-07-16T14:19:06;9.85;;;3.45;;
70467;SDS011;57934;51.532;7.684;2023-07-16T14:21:33;7.72;;;3.17;;
70467;SDS011;57934;51.532;7.684;2023-07-16T14:23:59;4.68;;;3.47;;
70467;SDS011;57934;51.532;7.684;2023-07-16T14:26:25;4.38;;;3.30;;
70467;SDS011;57934;51.532;7.684;2023-07-16T14:28:51;5.80;;;3.38;;
70467;SDS011;57934;51.532;7.684;2023-07-16T14:31:23;6.05;;;3.35;;
70467;SDS011;57934;51.532;7.684;2023-07-16T14:33:50;6.80;;;3.35;;
70467;SDS011;57934;51.532;7.684;2023-07-16T14:36:16;5.53;;;3.55;;
70467;SDS011;57934;51.532;7.684;2023-07-16T14:38:42;5.38;;;3.35;;
70467;SDS011;57934;51.532;7.684;2023-07-16T14:41:18;5.75;;;3.72;;
70467;SDS011;57934;51.532;7.684;2023-07-16T14:43:44;4.25;;;2.97;;
70467;SDS011;57934;51.532;7.684;2023-07-16T14:46:12;6.03;;;3.72;;
70467;SDS011;57934;51.532;7.684;2023-07-16T14:48:42;5.82;;;3.40;;
70467;SDS011;57934;51.532;7.684;2023-07-16T14:51:10;8.20;;;3.67;;
70467;SDS011;57934;51.532;7.684;2023-07-16T14:53:37;5.00;;;3.17;;
70467;SDS011;57934;51.532;7.684;2023-07-16T14:56:03;4.45;;;3.00;;
70467;SDS011;57934;51.532;7.684;2023-07-16T14:58:31;8.05;;;3.58;;
70467;SDS011;57934;51.532;7.684;2023-07-16T15:01:00;4.30;;;2.97;;
70467;SDS011;57934;51.532;7.684;2023-07-16T15:06:22;8.93;;;3.42;;